Terminal Aerodrome Forecast
Issued by NWS Lake Charles, LA

Home | Current Version | Previous Version | Text Only | Print | Product List | Glossary On
Versions: 1 2 3 4 5 6 7 8 9 10 11 12 13 14 15 16
000
FTUS44 KLCH 131100
TAFBPT
TAF
KBPT 131129Z 1312/1412 VRB03KT 3SM BR SCT150
      TEMPO 1312/1314 1SM FU BR
     FM131400 VRB03KT P6SM SCT030 SCT250
     FM131600 18006KT P6SM VCTS SCT030CB BKN250
      TEMPO 1318/1322 VRB10G15KT 2SM TSRA OVC030CB
     FM140000 17003KT P6SM FEW060 SCT200=

USA.gov is the U.S. government's official web portal to all federal, state and local government web resources and services.